Time;durP1;ratioP1;P1;durP2;ratioP2;P2;SDS_P1;SDS_P2;PMS_P1;PMS_P2;Temp;Humidity;BMP_temperature;BMP_pressure;BME280_temperature;BME280_humidity;BME280_pressure;Samples;Min_cycle;Max_cycle;Signal;HPM_P1;HPM_P2
2022/11/28 00:00:15;;;;;;;12.90;2.17;;;20.10;99.90;;;;;;5095798;28;20669;-76
2022/11/28 00:02:46;;;;;;;7.55;1.77;;;20.30;99.90;;;;;;5099049;28;20267;-76
2022/11/28 00:05:17;;;;;;;9.95;1.70;;;20.50;99.90;;;;;;5097721;28;20271;-76
2022/11/28 00:07:49;;;;;;;8.68;1.40;;;20.70;99.90;;;;;;5092919;28;20188;-76
2022/11/28 00:10:20;;;;;;;8.10;1.70;;;20.80;99.90;;;;;;5088927;28;20291;-76
2022/11/28 00:12:54;;;;;;;11.73;1.42;;;21.00;99.90;;;;;;5108549;28;20185;-76
2022/11/28 00:15:25;;;;;;;6.35;1.38;;;21.00;99.90;;;;;;5075798;28;20314;-76
2022/11/28 00:17:56;;;;;;;7.95;1.45;;;21.20;99.90;;;;;;5098532;28;20270;-77
2022/11/28 00:20:29;;;;;;;12.57;1.50;;;21.40;99.90;;;;;;5111790;28;20721;-75
2022/11/28 00:23:00;;;;;;;10.38;1.52;;;21.30;99.90;;;;;;5093024;28;20272;-76
2022/11/28 00:25:31;;;;;;;9.85;2.00;;;21.20;99.90;;;;;;5100478;28;20195;-77
2022/11/28 00:28:04;;;;;;;9.38;1.60;;;21.60;99.90;;;;;;5095143;28;20181;-77
2022/11/28 00:30:40;;;;;;;6.93;1.40;;;22.10;99.90;;;;;;5081087;28;20191;-76
2022/11/28 00:33:11;;;;;;;8.48;1.70;;;22.20;99.90;;;;;;5107602;28;20695;-76
2022/11/28 00:35:42;;;;;;;7.40;1.30;;;22.60;99.90;;;;;;5093529;28;20564;-76
2022/11/28 00:38:14;;;;;;;7.15;1.30;;;22.90;99.90;;;;;;5092586;28;20556;-76
2022/11/28 00:40:45;;;;;;;8.20;1.50;;;23.30;99.90;;;;;;5100434;28;20591;-77
2022/11/28 00:43:19;;;;;;;8.77;1.50;;;23.50;99.90;;;;;;5092665;28;20207;-76
2022/11/28 00:45:50;;;;;;;8.55;1.25;;;23.60;99.90;;;;;;5092163;28;20187;-77
2022/11/28 00:48:21;;;;;;;9.07;1.42;;;23.50;99.90;;;;;;5092882;28;20648;-76
2022/11/28 00:50:53;;;;;;;7.85;1.58;;;23.20;99.90;;;;;;5087855;28;20220;-77
2022/11/28 00:53:24;;;;;;;6.57;1.48;;;23.20;99.90;;;;;;5094422;28;20192;-75
2022/11/28 00:55:56;;;;;;;6.68;1.20;;;23.20;99.90;;;;;;5084932;28;20188;-75
2022/11/28 00:58:30;;;;;;;4.20;1.17;;;23.20;99.90;;;;;;5092702;28;20614;-77
2022/11/28 01:01:03;;;;;;;10.73;1.38;;;23.40;99.90;;;;;;5097436;28;20298;-78
2022/11/28 01:03:34;;;;;;;6.93;1.30;;;23.60;99.90;;;;;;5096417;28;20199;-76
2022/11/28 01:06:07;;;;;;;7.65;1.38;;;23.90;99.90;;;;;;5096748;28;20271;-76
2022/11/28 01:08:39;;;;;;;5.82;1.40;;;24.00;99.90;;;;;;5111340;28;20271;-76
2022/11/28 01:11:15;;;;;;;4.97;1.40;;;24.20;99.90;;;;;;5114882;28;20278;-76
2022/11/28 01:13:49;;;;;;;6.40;1.42;;;24.20;99.90;;;;;;5107171;28;20714;-77
2022/11/28 01:16:20;;;;;;;8.25;2.00;;;24.30;99.90;;;;;;5101145;28;20234;-77
2022/11/28 01:18:55;;;;;;;7.72;1.25;;;24.40;99.90;;;;;;5097659;28;20228;-76
2022/11/28 01:21:27;;;;;;;9.65;1.30;;;24.10;99.90;;;;;;5103129;28;20258;-76
2022/11/28 01:23:58;;;;;;;10.00;1.50;;;23.70;99.90;;;;;;5104102;28;20187;-77
2022/11/28 01:26:31;;;;;;;5.90;1.50;;;23.70;99.90;;;;;;5096262;28;20249;-77
2022/11/28 01:29:05;;;;;;;5.50;1.23;;;23.60;99.90;;;;;;5104195;28;20184;-77
2022/11/28 01:31:37;;;;;;;5.47;1.35;;;23.70;99.90;;;;;;5086571;28;20205;-78
2022/11/28 01:34:08;;;;;;;9.75;1.20;;;24.00;99.90;;;;;;5088602;28;20635;-77
2022/11/28 01:36:39;;;;;;;7.78;1.30;;;23.80;99.90;;;;;;5111566;28;20308;-76
2022/11/28 01:39:11;;;;;;;8.27;1.52;;;23.30;99.90;;;;;;5100938;28;20188;-78
2022/11/28 01:41:41;;;;;;;8.45;1.48;;;22.90;99.90;;;;;;5098665;28;20216;-78
2022/11/28 01:44:44;;;;;;;6.60;1.42;;;22.80;99.90;;;;;;5100841;28;20223;-78
2022/11/28 01:47:20;;;;;;;9.25;1.70;;;22.60;99.90;;;;;;5100395;28;20556;-79
2022/11/28 01:49:53;;;;;;;6.93;1.50;;;22.70;99.90;;;;;;5097710;27;20200;-82
2022/11/28 01:52:25;;;;;;;5.75;1.67;;;22.70;99.90;;;;;;5098596;28;20191;-81
2022/11/28 01:55:00;;;;;;;4.85;1.40;;;22.80;99.90;;;;;;5102375;28;20192;-81
2022/11/28 01:57:32;;;;;;;7.53;2.03;;;23.20;99.90;;;;;;5094716;28;20198;-82
2022/11/28 02:00:08;;;;;;;9.57;1.50;;;23.60;99.90;;;;;;5112867;28;20215;-80
2022/11/28 02:02:46;;;;;;;8.15;1.63;;;24.00;99.90;;;;;;5103006;28;20234;-80
2022/11/28 02:05:18;;;;;;;9.35;1.30;;;24.10;99.90;;;;;;5095267;28;20211;-82
2022/11/28 02:07:51;;;;;;;9.20;1.35;;;23.60;99.90;;;;;;5095172;28;20195;-78
2022/11/28 02:10:25;;;;;;;6.90;1.60;;;23.20;99.90;;;;;;5094265;28;20206;-75
2022/11/28 02:13:21;;;;;;;8.65;1.50;;;23.10;99.90;;;;;;5094995;28;20184;-74
2022/11/28 02:16:07;;;;;;;5.38;1.73;;;23.20;99.90;;;;;;5095737;28;20225;-76
2022/11/28 02:18:54;;;;;;;9.38;1.67;;;23.10;99.90;;;;;;5100277;28;20195;-75
2022/11/28 02:21:44;;;;;;;11.48;1.83;;;22.90;99.90;;;;;;5095159;28;20234;-76
2022/11/28 02:24:47;;;;;;;7.15;1.50;;;22.90;99.90;;;;;;5102940;28;20189;-77
2022/11/28 02:27:34;;;;;;;6.10;1.27;;;22.80;99.90;;;;;;5086828;28;20190;-76
2022/11/28 02:30:20;;;;;;;10.10;1.30;;;22.90;99.90;;;;;;5102365;28;20203;-74
2022/11/28 02:33:12;;;;;;;8.05;1.30;;;23.20;99.90;;;;;;5101391;28;20191;-75
2022/11/28 02:35:51;;;;;;;8.90;1.73;;;23.40;99.90;;;;;;5092074;28;20196;-76
2022/11/28 02:38:30;;;;;;;7.05;1.52;;;23.30;99.90;;;;;;5098043;28;20657;-75
2022/11/28 02:41:04;;;;;;;11.57;1.35;;;23.30;99.90;;;;;;5105306;28;20211;-74
2022/11/28 02:43:42;;;;;;;6.93;1.38;;;23.40;99.90;;;;;;5094769;28;20190;-75
2022/11/28 02:46:18;;;;;;;11.23;1.50;;;23.50;99.90;;;;;;5091585;28;20271;-76
2022/11/28 02:48:56;;;;;;;5.40;1.30;;;23.30;99.90;;;;;;5101158;28;20188;-76
2022/11/28 02:51:32;;;;;;;8.57;1.67;;;23.20;99.90;;;;;;5092107;28;20290;-77
2022/11/28 02:54:05;;;;;;;8.23;1.30;;;23.00;99.90;;;;;;5112434;28;20542;-75
2022/11/28 02:56:35;;;;;;;6.80;1.38;;;22.80;99.90;;;;;;5106159;28;20193;-75
2022/11/28 02:59:06;;;;;;;10.52;1.30;;;22.60;99.90;;;;;;5097014;28;20213;-76
2022/11/28 03:01:39;;;;;;;15.30;1.67;;;22.50;99.90;;;;;;5090763;28;20713;-76
2022/11/28 03:04:30;;;;;;;6.25;1.45;;;22.40;99.90;;;;;;5099930;28;20196;-76
2022/11/28 03:07:09;;;;;;;7.93;1.85;;;22.20;99.90;;;;;;5087317;28;20232;-77
2022/11/28 03:10:02;;;;;;;7.70;1.23;;;22.30;99.90;;;;;;5091003;28;20629;-76
2022/11/28 03:12:49;;;;;;;7.85;1.42;;;22.50;99.90;;;;;;5103804;28;20271;-79
2022/11/28 03:15:22;;;;;;;8.57;1.40;;;22.80;99.90;;;;;;5095162;28;20306;-76
2022/11/28 03:18:04;;;;;;;6.43;1.35;;;23.00;99.90;;;;;;5098665;28;20271;-80
2022/11/28 03:20:46;;;;;;;6.80;1.20;;;23.20;99.90;;;;;;5099806;28;20212;-75
2022/11/28 03:23:21;;;;;;;7.88;1.45;;;23.30;99.90;;;;;;5100654;28;20275;-77
2022/11/28 03:26:00;;;;;;;10.05;1.65;;;23.30;99.90;;;;;;5090998;28;20234;-84
2022/11/28 03:28:37;;;;;;;7.40;1.48;;;23.10;99.90;;;;;;5097985;28;20207;-80
2022/11/28 03:31:13;;;;;;;7.72;1.58;;;23.30;99.90;;;;;;5093479;28;20275;-81
2022/11/28 03:33:51;;;;;;;7.50;1.40;;;23.40;99.90;;;;;;5095202;28;20192;-76
2022/11/28 03:36:28;;;;;;;5.90;1.15;;;23.00;99.90;;;;;;5097338;28;20651;-79
2022/11/28 03:39:03;;;;;;;6.60;1.20;;;22.90;99.90;;;;;;5096419;28;20196;-76
2022/11/28 03:41:38;;;;;;;8.57;1.25;;;22.90;99.90;;;;;;5097844;28;20705;-78
2022/11/28 03:44:13;;;;;;;5.55;1.30;;;23.00;99.90;;;;;;5093582;28;20195;-77
2022/11/28 03:46:49;;;;;;;6.65;1.27;;;23.00;99.90;;;;;;5086312;28;20604;-76
2022/11/28 03:49:25;;;;;;;5.05;1.20;;;23.00;99.90;;;;;;5093001;28;20620;-77
2022/11/28 03:52:02;;;;;;;6.05;1.40;;;23.00;99.90;;;;;;5089276;28;20192;-77
2022/11/28 03:54:42;;;;;;;8.00;1.55;;;23.00;99.90;;;;;;5100386;28;20234;-76
2022/11/28 03:57:19;;;;;;;9.18;1.60;;;23.00;99.90;;;;;;5091581;28;20636;-77
2022/11/28 03:59:52;;;;;;;6.93;1.35;;;22.80;99.90;;;;;;5092736;28;20556;-75
2022/11/28 04:02:31;;;;;;;4.95;1.27;;;22.70;99.90;;;;;;5102849;28;20211;-74
2022/11/28 04:05:10;;;;;;;7.93;1.52;;;22.50;99.90;;;;;;5096481;28;20192;-76
2022/11/28 04:07:47;;;;;;;9.32;1.38;;;22.30;99.90;;;;;;5083339;28;20195;-77
2022/11/28 04:10:22;;;;;;;6.20;1.38;;;22.30;99.90;;;;;;5097394;28;20204;-76
2022/11/28 04:13:01;;;;;;;6.95;1.30;;;22.20;99.90;;;;;;5091445;28;20203;-75
2022/11/28 04:15:40;;;;;;;9.75;1.30;;;22.30;99.90;;;;;;5099414;28;20770;-78
2022/11/28 04:18:22;;;;;;;9.65;1.42;;;22.60;99.90;;;;;;5084863;28;20227;-76
2022/11/28 04:20:57;;;;;;;8.48;1.50;;;22.60;99.90;;;;;;5089072;28;20693;-84
2022/11/28 04:23:32;;;;;;;11.75;1.30;;;22.50;99.90;;;;;;5090926;28;20196;-78
2022/11/28 04:26:08;;;;;;;5.68;1.40;;;22.40;99.90;;;;;;5093381;28;20202;-79
2022/11/28 04:28:40;;;;;;;7.00;1.52;;;22.30;99.90;;;;;;5110749;28;20191;-77
2022/11/28 04:31:12;;;;;;;7.65;1.45;;;22.20;99.90;;;;;;5101304;28;20282;-75
2022/11/28 04:33:50;;;;;;;8.10;1.30;;;22.00;99.90;;;;;;5106978;28;20554;-79
2022/11/28 04:36:22;;;;;;;9.10;1.52;;;22.10;99.90;;;;;;5097502;28;20677;-79
2022/11/28 04:38:58;;;;;;;7.15;1.20;;;22.20;99.90;;;;;;5101618;28;20673;-76
2022/11/28 04:41:35;;;;;;;7.47;1.50;;;22.30;99.90;;;;;;5115755;27;20716;-77
2022/11/28 04:44:12;;;;;;;9.55;1.70;;;22.30;99.90;;;;;;5092738;28;20643;-80
2022/11/28 04:46:46;;;;;;;8.30;1.50;;;22.50;99.90;;;;;;5099688;28;20203;-79
2022/11/28 04:49:17;;;;;;;9.32;1.50;;;22.60;99.90;;;;;;5108323;28;20287;-80
2022/11/28 04:51:54;;;;;;;7.18;1.27;;;22.50;99.90;;;;;;5081546;28;20218;-79
2022/11/28 04:54:33;;;;;;;9.15;1.30;;;22.30;99.90;;;;;;5090164;28;20203;-79
2022/11/28 04:57:10;;;;;;;9.40;1.42;;;22.10;99.90;;;;;;5087064;28;20276;-79
2022/11/28 04:59:43;;;;;;;7.90;1.23;;;22.00;99.90;;;;;;5091624;28;20230;-80
2022/11/28 05:02:17;;;;;;;6.20;1.25;;;22.00;99.90;;;;;;5095566;28;20220;-80
2022/11/28 05:04:51;;;;;;;7.80;1.25;;;22.10;99.90;;;;;;5094724;28;20265;-76
2022/11/28 05:07:23;;;;;;;8.93;1.20;;;22.10;99.90;;;;;;5087922;28;20279;-78
2022/11/28 05:09:57;;;;;;;9.45;1.55;;;21.90;99.90;;;;;;5093905;28;20184;-81
2022/11/28 05:12:28;;;;;;;7.13;1.48;;;21.80;99.90;;;;;;5095632;28;20191;-77
2022/11/28 05:15:00;;;;;;;6.40;1.23;;;21.90;99.90;;;;;;5093644;28;20228;-79
2022/11/28 05:17:31;;;;;;;6.22;1.20;;;22.00;99.90;;;;;;5090252;28;20181;-77
2022/11/28 05:20:03;;;;;;;8.80;1.65;;;22.00;99.90;;;;;;5092168;28;20212;-77
2022/11/28 05:22:34;;;;;;;5.00;1.20;;;22.00;99.90;;;;;;5093921;28;20257;-75
2022/11/28 05:25:08;;;;;;;6.97;1.48;;;21.90;99.90;;;;;;5092703;28;20279;-79
2022/11/28 05:27:40;;;;;;;7.53;1.42;;;21.80;99.90;;;;;;5093853;28;20191;-77
2022/11/28 05:30:12;;;;;;;7.72;1.20;;;21.70;99.90;;;;;;5093253;28;20195;-75
2022/11/28 05:32:43;;;;;;;5.13;1.10;;;21.80;99.90;;;;;;5094919;28;20670;-76
2022/11/28 05:35:14;;;;;;;6.95;1.13;;;21.90;99.90;;;;;;5092586;28;20206;-76
2022/11/28 05:37:45;;;;;;;8.93;1.48;;;21.90;99.90;;;;;;5091213;28;20188;-76
2022/11/28 05:40:20;;;;;;;8.85;1.30;;;21.90;99.90;;;;;;5093780;28;20210;-77
2022/11/28 05:42:51;;;;;;;5.38;1.27;;;22.00;99.90;;;;;;5089149;28;20318;-76
2022/11/28 05:45:22;;;;;;;5.32;1.20;;;21.90;99.90;;;;;;5085252;28;20197;-80
2022/11/28 05:47:52;;;;;;;8.57;1.40;;;22.00;99.90;;;;;;5099760;28;20199;-78
2022/11/28 05:50:23;;;;;;;5.75;1.30;;;22.00;99.90;;;;;;5095831;28;20229;-76
2022/11/28 05:52:54;;;;;;;6.07;1.27;;;22.00;99.90;;;;;;5090805;28;20192;-76
2022/11/28 05:55:27;;;;;;;4.70;1.20;;;22.10;99.90;;;;;;5097290;28;20196;-77
2022/11/28 05:57:58;;;;;;;5.05;1.33;;;22.10;99.90;;;;;;5091250;28;20249;-79
2022/11/28 06:00:29;;;;;;;5.30;1.25;;;22.10;99.90;;;;;;5090664;28;20209;-77
2022/11/28 06:03:00;;;;;;;8.23;1.40;;;22.10;99.90;;;;;;5088285;28;20236;-77
2022/11/28 06:05:31;;;;;;;5.35;1.23;;;22.00;99.90;;;;;;5088488;28;20228;-77
2022/11/28 06:08:02;;;;;;;6.22;1.50;;;21.90;99.90;;;;;;5089441;28;20196;-76
2022/11/28 06:10:35;;;;;;;6.82;1.38;;;21.90;99.90;;;;;;5087991;28;20209;-77
2022/11/28 06:13:05;;;;;;;8.23;1.40;;;21.90;99.90;;;;;;5082878;28;20192;-79
2022/11/28 06:15:36;;;;;;;6.65;1.17;;;22.00;99.90;;;;;;5099174;28;20235;-76
2022/11/28 06:18:07;;;;;;;6.90;1.30;;;22.00;99.90;;;;;;5095047;28;20191;-76
2022/11/28 06:20:38;;;;;;;7.50;1.58;;;21.90;99.90;;;;;;5107250;28;20632;-79
2022/11/28 06:23:09;;;;;;;8.95;1.55;;;21.80;99.90;;;;;;5105358;28;20222;-79
2022/11/28 06:25:42;;;;;;;5.07;1.30;;;21.60;99.90;;;;;;5105510;28;20279;-77
2022/11/28 06:28:12;;;;;;;6.07;1.33;;;21.60;99.90;;;;;;5101692;28;20207;-78
2022/11/28 06:30:45;;;;;;;7.57;1.50;;;21.40;99.90;;;;;;5109181;28;20196;-80
2022/11/28 06:33:16;;;;;;;4.10;1.20;;;21.30;99.90;;;;;;5104344;28;20198;-77
2022/11/28 06:35:47;;;;;;;7.38;1.50;;;21.20;99.90;;;;;;5083862;28;20188;-77
2022/11/28 06:38:18;;;;;;;8.15;1.30;;;21.30;99.90;;;;;;5092298;28;20200;-78
2022/11/28 06:40:50;;;;;;;11.63;1.48;;;21.30;99.90;;;;;;5092885;28;20196;-80
2022/11/28 06:43:21;;;;;;;3.92;1.40;;;21.20;99.90;;;;;;5083978;28;20205;-78
2022/11/28 06:45:52;;;;;;;8.10;1.50;;;21.10;99.90;;;;;;5095266;28;20196;-77
2022/11/28 06:48:24;;;;;;;6.13;1.88;;;21.00;99.90;;;;;;5097281;28;20211;-77
2022/11/28 06:50:55;;;;;;;8.95;1.48;;;21.00;99.90;;;;;;5086799;28;20220;-78
2022/11/28 06:53:27;;;;;;;6.10;1.30;;;20.90;99.90;;;;;;5087370;28;20648;-77
2022/11/28 06:56:00;;;;;;;17.23;2.17;;;21.00;99.90;;;;;;5098001;28;20271;-79
2022/11/28 06:58:31;;;;;;;6.72;1.30;;;20.90;99.90;;;;;;5097320;28;20560;-82
2022/11/28 07:01:08;;;;;;;4.15;1.35;;;21.00;99.90;;;;;;5096420;28;20275;-78
2022/11/28 07:03:40;;;;;;;4.45;1.05;;;21.10;99.90;;;;;;5093639;28;20210;-76
2022/11/28 07:06:16;;;;;;;6.90;1.60;;;21.10;99.90;;;;;;5095101;28;20207;-76
2022/11/28 07:08:47;;;;;;;10.23;1.63;;;21.00;99.90;;;;;;5077899;28;20283;-77
2022/11/28 07:14:13;;;;;;;6.47;1.55;;;20.90;99.90;;;;;;5093295;28;20575;-76
2022/11/28 07:16:47;;;;;;;6.63;1.20;;;20.80;99.90;;;;;;5091476;28;20260;-79
2022/11/28 07:19:21;;;;;;;5.78;1.40;;;20.80;99.90;;;;;;5093555;27;20199;-77
2022/11/28 07:21:53;;;;;;;5.18;1.38;;;20.90;99.90;;;;;;5091005;28;20223;-77
2022/11/28 07:24:24;;;;;;;6.93;1.58;;;20.90;99.90;;;;;;5095568;28;20290;-76
2022/11/28 07:27:03;;;;;;;5.13;1.27;;;20.90;99.90;;;;;;5093177;28;20200;-80
2022/11/28 07:29:35;;;;;;;3.60;1.35;;;20.90;99.90;;;;;;5105030;28;20196;-79
2022/11/28 07:32:07;;;;;;;5.43;1.45;;;20.80;99.90;;;;;;5078004;28;20192;-75
2022/11/28 07:34:38;;;;;;;6.90;1.38;;;20.60;99.90;;;;;;5091724;28;20200;-78
2022/11/28 07:37:09;;;;;;;6.50;1.45;;;20.60;99.90;;;;;;5099158;28;20192;-75
2022/11/28 07:39:41;;;;;;;5.20;1.33;;;20.40;99.90;;;;;;5099672;28;20187;-77
2022/11/28 07:42:15;;;;;;;4.25;1.45;;;20.30;99.90;;;;;;5089509;28;20306;-77
2022/11/28 07:44:47;;;;;;;6.85;1.38;;;20.20;99.90;;;;;;5090619;28;20563;-77
2022/11/28 07:47:19;;;;;;;6.45;1.63;;;20.20;99.90;;;;;;5098890;28;20192;-76
2022/11/28 07:49:51;;;;;;;9.63;1.70;;;20.20;99.90;;;;;;5106273;28;20212;-78
2022/11/28 07:52:22;;;;;;;6.57;1.80;;;20.10;99.90;;;;;;5080370;28;20199;-79
2022/11/28 07:54:53;;;;;;;9.35;1.40;;;20.10;99.90;;;;;;5097591;28;20184;-81
2022/11/28 07:57:26;;;;;;;5.97;1.65;;;20.10;99.90;;;;;;5096386;28;20196;-76
2022/11/28 07:59:57;;;;;;;4.55;1.10;;;20.10;99.90;;;;;;5094387;28;20271;-76
2022/11/28 08:02:31;;;;;;;6.97;1.40;;;20.10;99.90;;;;;;5101338;28;20221;-78
2022/11/28 08:05:02;;;;;;;7.82;1.38;;;20.00;99.90;;;;;;5094340;28;20184;-78
2022/11/28 08:07:33;;;;;;;5.45;1.20;;;20.10;99.90;;;;;;5091655;28;20198;-75
2022/11/28 08:10:04;;;;;;;4.32;1.10;;;20.10;99.90;;;;;;5091680;28;20630;-77
2022/11/28 08:12:37;;;;;;;5.68;1.50;;;20.20;99.90;;;;;;5093589;28;20547;-76
2022/11/28 08:15:09;;;;;;;5.03;1.30;;;20.10;99.90;;;;;;5097242;28;20682;-78
2022/11/28 08:17:44;;;;;;;9.63;1.55;;;20.00;99.90;;;;;;5096996;28;20627;-78
2022/11/28 08:20:15;;;;;;;6.43;1.30;;;20.00;99.90;;;;;;5085843;28;20556;-78
2022/11/28 08:22:48;;;;;;;7.50;1.23;;;19.90;99.90;;;;;;5092884;28;20222;-80
2022/11/28 08:25:19;;;;;;;8.68;1.52;;;19.80;99.90;;;;;;5092663;28;20180;-80
2022/11/28 08:27:53;;;;;;;4.22;1.30;;;19.80;99.90;;;;;;5090830;28;20207;-79
2022/11/28 08:30:24;;;;;;;6.72;1.50;;;19.70;99.90;;;;;;5093942;28;20188;-80
2022/11/28 08:32:55;;;;;;;8.45;1.38;;;19.70;99.90;;;;;;5094051;28;20189;-80
2022/11/28 08:35:26;;;;;;;7.10;1.50;;;19.60;99.90;;;;;;5093487;28;20227;-75
2022/11/28 08:37:59;;;;;;;5.45;1.70;;;19.50;99.90;;;;;;5100156;28;20219;-79
2022/11/28 08:40:30;;;;;;;8.52;1.52;;;19.50;99.90;;;;;;5092996;28;20184;-76
2022/11/28 08:43:04;;;;;;;5.55;1.40;;;19.40;99.90;;;;;;5108339;28;20212;-77
2022/11/28 08:45:36;;;;;;;9.23;1.50;;;19.40;99.90;;;;;;5089583;28;20581;-76
2022/11/28 08:48:07;;;;;;;3.22;1.23;;;19.40;99.90;;;;;;5087808;28;20200;-76
2022/11/28 08:50:39;;;;;;;7.07;1.50;;;19.30;99.90;;;;;;5089866;28;20303;-76
2022/11/28 08:53:10;;;;;;;6.70;1.20;;;19.30;99.90;;;;;;5092080;28;20200;-76
2022/11/28 08:55:43;;;;;;;4.32;1.20;;;19.30;99.90;;;;;;5094867;28;20224;-76
2022/11/28 08:58:16;;;;;;;5.43;1.35;;;19.20;99.90;;;;;;5105819;28;20180;-76
2022/11/28 09:00:47;;;;;;;5.32;1.30;;;19.20;99.90;;;;;;5092811;28;20655;-75
2022/11/28 09:03:20;;;;;;;3.88;1.40;;;19.20;99.90;;;;;;5098655;28;20698;-77
2022/11/28 09:05:52;;;;;;;4.70;1.25;;;19.20;99.90;;;;;;5112009;28;20192;-76
2022/11/28 09:08:23;;;;;;;4.85;1.00;;;19.20;99.90;;;;;;5091812;28;20284;-78
2022/11/28 09:10:54;;;;;;;5.75;1.30;;;19.10;99.90;;;;;;5094868;28;20189;-77
2022/11/28 09:13:26;;;;;;;6.25;1.30;;;19.10;99.90;;;;;;5097996;28;20199;-80
2022/11/28 09:15:57;;;;;;;5.35;1.45;;;19.10;99.90;;;;;;5092039;28;20230;-78
2022/11/28 09:18:28;;;;;;;9.40;1.27;;;19.10;99.90;;;;;;5099850;28;20195;-76
2022/11/28 09:21:03;;;;;;;5.53;1.10;;;19.00;99.90;;;;;;5105511;28;20619;-75
2022/11/28 09:23:37;;;;;;;6.38;1.30;;;19.00;99.90;;;;;;5096120;28;20313;-76
2022/11/28 09:26:11;;;;;;;5.70;1.20;;;19.00;99.90;;;;;;5095671;28;20243;-76
2022/11/28 09:28:44;;;;;;;7.18;1.42;;;19.00;99.90;;;;;;5096170;28;20188;-75
2022/11/28 09:31:16;;;;;;;5.80;1.15;;;19.00;99.90;;;;;;5095918;28;20188;-76
2022/11/28 09:33:48;;;;;;;7.00;1.50;;;19.00;99.90;;;;;;5110983;28;20184;-75
2022/11/28 09:36:20;;;;;;;5.43;1.30;;;19.00;99.90;;;;;;5103103;28;20231;-76
2022/11/28 09:38:52;;;;;;;5.80;1.20;;;19.00;99.90;;;;;;5096155;28;20199;-76
2022/11/28 09:41:54;;;;;;;6.32;1.30;;;19.00;99.90;;;;;;5114565;28;20188;-76
2022/11/28 09:44:34;;;;;;;8.27;1.25;;;19.00;99.90;;;;;;5032738;28;20202;-75
2022/11/28 09:47:10;;;;;;;5.00;1.10;;;19.00;99.90;;;;;;5105762;28;20213;-76
2022/11/28 09:49:48;;;;;;;6.60;1.40;;;19.00;99.90;;;;;;5099102;28;20709;-76
2022/11/28 09:52:34;;;;;;;6.03;1.40;;;19.00;99.90;;;;;;5096848;28;20278;-76
2022/11/28 09:55:18;;;;;;;5.18;1.27;;;19.00;99.90;;;;;;5107560;28;20353;-76
2022/11/28 09:57:51;;;;;;;5.75;1.50;;;19.00;99.90;;;;;;5096333;28;20189;-77
2022/11/28 10:00:34;;;;;;;5.57;1.15;;;19.00;99.90;;;;;;5086202;28;20267;-75
2022/11/28 10:03:34;;;;;;;3.30;1.30;;;19.00;99.90;;;;;;5103261;28;20290;-76
2022/11/28 10:06:14;;;;;;;7.25;1.38;;;19.00;99.90;;;;;;5095107;28;20201;-76
2022/11/28 10:09:00;;;;;;;8.57;1.40;;;19.00;99.90;;;;;;5105099;28;20278;-76
2022/11/28 10:11:47;;;;;;;5.30;1.52;;;19.00;99.90;;;;;;5103122;28;20279;-77
2022/11/28 10:14:47;;;;;;;8.90;1.30;;;19.00;99.90;;;;;;5103877;28;20661;-76
2022/11/28 10:17:36;;;;;;;4.82;1.30;;;19.00;99.90;;;;;;5050205;28;20297;-76
2022/11/28 10:20:12;;;;;;;7.15;1.30;;;19.00;99.90;;;;;;5047491;28;20193;-76
2022/11/28 10:22:49;;;;;;;6.00;1.30;;;19.00;99.90;;;;;;5049180;28;20209;-76
2022/11/28 10:25:22;;;;;;;9.15;1.40;;;19.00;99.90;;;;;;5052223;28;20280;-76
2022/11/28 10:27:54;;;;;;;7.88;1.30;;;19.00;99.90;;;;;;5059149;28;20686;-76
2022/11/28 10:30:27;;;;;;;7.50;1.30;;;19.00;99.90;;;;;;5061030;28;20193;-76
2022/11/28 10:33:06;;;;;;;5.82;1.40;;;19.00;99.90;;;;;;5063008;28;20189;-76
2022/11/28 10:35:44;;;;;;;5.65;1.77;;;19.00;99.90;;;;;;5066437;28;20268;-76
2022/11/28 10:38:16;;;;;;;4.75;1.40;;;19.00;99.90;;;;;;5064410;28;20618;-76
2022/11/28 10:40:52;;;;;;;8.43;1.42;;;19.00;99.90;;;;;;5056961;28;20230;-75
2022/11/28 10:43:36;;;;;;;6.05;1.35;;;19.00;99.90;;;;;;5071006;28;20214;-76
2022/11/28 10:46:34;;;;;;;5.65;1.20;;;19.00;99.90;;;;;;5074125;28;20235;-76
2022/11/28 10:49:19;;;;;;;6.85;1.15;;;18.90;99.90;;;;;;5053560;28;20198;-76
2022/11/28 10:51:57;;;;;;;6.72;1.30;;;18.90;99.90;;;;;;5064141;28;20272;-76
2022/11/28 10:54:49;;;;;;;6.15;1.20;;;18.90;99.90;;;;;;5059612;28;20194;-76
2022/11/28 10:57:24;;;;;;;8.82;1.00;;;18.90;99.90;;;;;;5052039;28;20203;-77
2022/11/28 11:00:09;;;;;;;7.60;1.40;;;18.90;99.90;;;;;;5055010;28;20672;-78
2022/11/28 11:02:44;;;;;;;9.38;1.35;;;18.90;99.90;;;;;;5046022;28;20677;-78
2022/11/28 11:05:20;;;;;;;9.60;1.42;;;18.90;99.90;;;;;;5049132;28;20205;-77
2022/11/28 11:07:54;;;;;;;5.93;1.10;;;18.90;99.90;;;;;;5050320;28;20197;-76
2022/11/28 11:10:32;;;;;;;4.43;1.30;;;18.90;99.90;;;;;;5049148;28;20240;-76
2022/11/28 11:13:12;;;;;;;7.22;1.45;;;18.90;99.90;;;;;;5051500;28;20200;-77
2022/11/28 11:15:44;;;;;;;5.50;1.35;;;18.90;99.90;;;;;;5073540;28;20760;-78
2022/11/28 11:18:25;;;;;;;3.25;1.17;;;18.90;99.90;;;;;;5093897;28;20278;-76
2022/11/28 11:21:11;;;;;;;5.80;1.13;;;18.90;99.90;;;;;;5093348;28;20192;-76
2022/11/28 11:23:42;;;;;;;3.20;1.20;;;18.90;99.90;;;;;;5093595;28;20212;-76
2022/11/28 11:26:24;;;;;;;10.85;1.55;;;18.90;99.90;;;;;;5087641;28;20196;-77
2022/11/28 11:28:55;;;;;;;8.88;1.45;;;18.90;99.90;;;;;;5092742;28;20664;-76
2022/11/28 11:31:30;;;;;;;6.43;1.23;;;18.90;99.90;;;;;;5091114;28;20274;-77
2022/11/28 11:34:08;;;;;;;7.28;2.08;;;18.90;99.90;;;;;;5091625;28;20270;-77
2022/11/28 11:36:43;;;;;;;4.82;1.40;;;18.90;99.90;;;;;;5093463;28;20191;-76
2022/11/28 11:39:24;;;;;;;4.90;1.35;;;18.90;99.90;;;;;;5091271;28;20270;-77
2022/11/28 11:42:12;;;;;;;6.60;1.30;;;18.90;99.90;;;;;;5094217;28;20203;-77
2022/11/28 11:44:43;;;;;;;4.28;1.27;;;18.80;99.90;;;;;;5094955;28;20208;-76
2022/11/28 11:47:14;;;;;;;4.97;1.38;;;18.90;99.90;;;;;;5093827;28;20188;-76
2022/11/28 11:49:46;;;;;;;5.47;1.38;;;18.80;99.90;;;;;;5092225;28;20303;-75
2022/11/28 11:52:25;;;;;;;9.20;1.48;;;18.80;99.90;;;;;;5097677;28;20203;-76
2022/11/28 11:55:05;;;;;;;5.55;1.10;;;18.70;99.90;;;;;;5094737;28;20193;-76
2022/11/28 11:57:39;;;;;;;5.82;1.52;;;18.70;99.90;;;;;;5098342;28;20642;-76
2022/11/28 12:00:18;;;;;;;4.35;1.17;;;18.60;99.90;;;;;;5102732;28;20648;-76
2022/11/28 12:02:52;;;;;;;5.32;1.40;;;18.60;99.90;;;;;;5086678;28;20279;-77
2022/11/28 12:05:26;;;;;;;7.20;1.48;;;18.60;99.90;;;;;;5093019;28;20191;-77
2022/11/28 12:08:07;;;;;;;5.28;1.60;;;18.50;99.90;;;;;;5094364;28;20599;-76
2022/11/28 12:10:42;;;;;;;5.63;1.33;;;18.50;99.90;;;;;;5110363;28;20187;-77
2022/11/28 12:13:22;;;;;;;5.95;1.58;;;18.50;99.90;;;;;;5100376;28;20283;-77
2022/11/28 12:16:03;;;;;;;6.30;1.40;;;18.50;99.90;;;;;;5095275;28;20224;-78
2022/11/28 12:18:45;;;;;;;3.03;1.27;;;18.50;99.90;;;;;;5100559;28;20550;-79
2022/11/28 12:21:22;;;;;;;5.10;1.45;;;18.50;99.90;;;;;;5093718;28;20279;-76
2022/11/28 12:24:10;;;;;;;6.53;1.45;;;18.50;99.90;;;;;;5091260;28;20298;-76
2022/11/28 12:26:48;;;;;;;9.85;1.40;;;18.50;99.90;;;;;;5087963;28;20220;-76
2022/11/28 12:29:34;;;;;;;4.40;1.25;;;18.40;99.90;;;;;;5112766;28;20248;-76
2022/11/28 12:32:21;;;;;;;6.88;1.33;;;18.40;99.90;;;;;;5089709;28;20185;-76
2022/11/28 12:35:08;;;;;;;6.15;1.70;;;18.40;99.90;;;;;;5109255;28;20211;-76
2022/11/28 12:37:51;;;;;;;7.88;1.60;;;18.40;99.90;;;;;;5092449;28;20283;-76
2022/11/28 12:40:38;;;;;;;6.15;1.60;;;18.40;99.90;;;;;;5097285;28;20651;-76
2022/11/28 12:43:22;;;;;;;6.15;1.73;;;18.30;99.90;;;;;;5091345;28;20702;-76
2022/11/28 12:46:01;;;;;;;10.18;1.67;;;18.30;99.90;;;;;;5092541;28;20265;-76
2022/11/28 12:49:00;;;;;;;4.22;1.40;;;18.30;99.90;;;;;;5092654;28;20196;-76
2022/11/28 12:51:41;;;;;;;5.03;1.42;;;18.40;99.90;;;;;;5102187;28;20207;-76
2022/11/28 12:54:32;;;;;;;6.45;1.60;;;18.40;99.90;;;;;;5098071;28;20662;-76
2022/11/28 12:57:13;;;;;;;6.72;1.45;;;18.40;99.90;;;;;;5115787;28;20206;-76
2022/11/28 12:59:52;;;;;;;5.28;1.60;;;18.40;99.90;;;;;;5102494;28;20192;-76
2022/11/28 13:02:44;;;;;;;7.25;1.40;;;18.40;99.90;;;;;;5098298;28;20275;-76
2022/11/28 13:05:33;;;;;;;4.32;1.30;;;18.40;99.90;;;;;;5091564;28;20295;-76
2022/11/28 13:08:26;;;;;;;6.60;1.80;;;18.40;99.90;;;;;;5103989;28;20202;-76
2022/11/28 13:11:06;;;;;;;8.80;1.73;;;18.40;99.90;;;;;;5101467;28;20570;-76
2022/11/28 13:13:45;;;;;;;8.88;1.45;;;18.40;99.90;;;;;;5096662;28;20188;-76
2022/11/28 13:16:24;;;;;;;4.90;1.75;;;18.40;99.90;;;;;;5102610;28;20231;-76
2022/11/28 13:19:00;;;;;;;6.95;2.03;;;18.40;99.90;;;;;;5106172;28;20188;-76
2022/11/28 13:21:39;;;;;;;5.30;1.40;;;18.40;99.90;;;;;;5114948;28;20180;-76
2022/11/28 13:24:21;;;;;;;4.70;1.52;;;18.40;99.90;;;;;;5080038;28;20223;-76
2022/11/28 13:26:59;;;;;;;6.80;1.67;;;18.40;99.90;;;;;;5096096;28;20220;-76
2022/11/28 13:29:39;;;;;;;6.53;1.85;;;18.40;99.90;;;;;;5095409;28;20187;-76
2022/11/28 13:32:17;;;;;;;3.38;1.48;;;18.40;99.90;;;;;;5104466;28;20556;-76